Time;durP1;ratioP1;P1;durP2;ratioP2;P2;SDS_P1;SDS_P2;PMS_P1;PMS_P2;Temp;Humidity;BMP_temperature;BMP_pressure;BME280_temperature;BME280_humidity;BME280_pressure;Samples;Min_cycle;Max_cycle;Signal;HPM_P1;HPM_P2
2023/12/05 00:01:07;;;;;;;13.90;10.00;;;;;;;-3.17;71.48;100171.94;107335;1257;72696;-39
2023/12/05 00:03:35;;;;;;;15.60;10.40;;;;;;;-3.27;71.52;100168.87;107210;1256;61645;-39
2023/12/05 00:06:08;;;;;;;16.60;10.60;;;;;;;-3.27;71.46;100165.47;107315;1256;60082;-39
2023/12/05 00:08:36;;;;;;;14.80;10.30;;;;;;;-3.26;71.39;100169.67;107259;1257;73076;-39
2023/12/05 00:11:07;;;;;;;15.30;10.90;;;;;;;-3.32;71.27;100168.86;107252;1257;68097;-39
2023/12/05 00:13:35;;;;;;;16.30;11.40;;;;;;;-3.41;71.25;100164.25;107324;1257;72704;-39
2023/12/05 00:16:03;;;;;;;15.60;11.60;;;;;;;-3.51;71.59;100166.48;107143;1257;59742;-39
2023/12/05 00:18:31;;;;;;;17.00;11.40;;;;;;;-3.61;71.63;100167.99;107131;1256;59292;-39
2023/12/05 00:20:59;;;;;;;16.80;11.00;;;;;;;-3.73;71.66;100172.35;107153;1257;73171;-39
2023/12/05 00:23:26;;;;;;;18.00;12.20;;;;;;;-3.82;71.69;100174.08;107111;1257;67576;-39
2023/12/05 00:25:53;;;;;;;15.90;11.10;;;;;;;-3.92;71.96;100177.92;106493;1257;1003103;-39
2023/12/05 00:28:21;;;;;;;14.60;10.20;;;;;;;-3.93;71.88;100174.42;107144;1256;62413;-39
2023/12/05 00:30:48;;;;;;;15.80;10.70;;;;;;;-3.90;71.87;100173.60;107256;1256;60008;-39
2023/12/05 00:33:16;;;;;;;16.10;11.20;;;;;;;-3.93;71.70;100174.38;107199;1256;73044;-39
2023/12/05 00:35:44;;;;;;;15.10;10.90;;;;;;;-4.00;71.94;100170.51;107167;1256;67707;-39
2023/12/05 00:38:12;;;;;;;16.80;11.10;;;;;;;-4.07;72.02;100170.58;107074;1257;72493;-39
2023/12/05 00:40:39;;;;;;;16.00;11.10;;;;;;;-4.15;71.95;100171.64;107220;1257;59617;-39
2023/12/05 00:43:07;;;;;;;16.20;10.70;;;;;;;-4.21;71.98;100172.59;106419;1257;1002702;-39
2023/12/05 00:45:34;;;;;;;17.40;11.20;;;;;;;-4.28;71.96;100178.63;106483;1257;1003218;-39
2023/12/05 00:48:02;;;;;;;20.90;14.40;;;;;;;-4.34;71.94;100186.58;106437;1257;1003014;-39
2023/12/05 00:50:30;;;;;;;18.40;12.00;;;;;;;-4.39;72.03;100191.06;106442;1256;1003588;-39
2023/12/05 00:53:07;;;;;;;16.50;11.10;;;;;;;-4.45;71.93;100189.33;107231;1257;59525;-39
2023/12/05 00:55:35;;;;;;;16.40;12.20;;;;;;;-4.42;71.77;100192.52;107209;1257;60036;-39
2023/12/05 00:58:03;;;;;;;14.50;9.70;;;;;;;-4.35;71.22;100200.00;107178;1255;73093;-39
2023/12/05 01:00:30;;;;;;;17.10;12.20;;;;;;;-4.38;71.26;100200.20;107182;1256;67707;-40
2023/12/05 01:02:58;;;;;;;50.20;30.60;;;;;;;-4.42;71.22;100194.99;107195;1260;72651;-39
2023/12/05 01:05:26;;;;;;;26.50;16.80;;;;;;;-4.45;71.14;100197.58;107195;1260;59646;-39
2023/12/05 01:07:53;;;;;;;17.70;11.90;;;;;;;-4.46;71.11;100201.49;107103;1257;60083;-39
2023/12/05 01:10:21;;;;;;;40.30;27.00;;;;;;;-4.47;70.92;100202.79;107168;1256;73070;-39
2023/12/05 01:12:49;;;;;;;50.10;30.90;;;;;;;-4.55;70.68;100201.66;107192;1260;66268;-39
2023/12/05 01:15:16;;;;;;;35.40;22.80;;;;;;;-4.63;70.47;100200.61;107185;1256;72724;-39
2023/12/05 01:17:44;;;;;;;25.70;17.20;;;;;;;-4.75;70.55;100202.75;107219;1257;59663;-39
2023/12/05 01:20:12;;;;;;;18.60;12.30;;;;;;;-4.83;70.69;100206.63;107172;1256;60042;-39
2023/12/05 01:22:39;;;;;;;15.30;10.60;;;;;;;-4.93;70.63;100211.79;106442;1255;1003374;-39
2023/12/05 01:25:07;;;;;;;16.10;11.00;;;;;;;-5.06;70.70;100213.94;107211;1256;65307;-39
2023/12/05 01:27:35;;;;;;;17.20;11.20;;;;;;;-5.12;70.53;100211.70;107172;1257;72463;-39
2023/12/05 01:30:04;;;;;;;16.20;11.00;;;;;;;-5.20;70.40;100193.52;107150;1258;59893;-39
2023/12/05 01:32:32;;;;;;;18.00;11.60;;;;;;;-5.17;70.53;100205.63;107250;1258;60951;-39
2023/12/05 01:34:59;;;;;;;18.00;12.30;;;;;;;-5.23;70.83;100202.13;106479;1256;1003347;-39
2023/12/05 01:37:27;;;;;;;18.50;12.60;;;;;;;-5.22;70.92;100203.56;107183;1257;66901;-39
2023/12/05 01:39:54;;;;;;;19.80;13.00;;;;;;;-5.20;71.16;100205.46;107204;1257;71369;-39
2023/12/05 01:42:22;;;;;;;19.30;12.30;;;;;;;-5.18;71.14;100205.46;107177;1257;59628;-39
2023/12/05 01:44:49;;;;;;;22.70;13.30;;;;;;;-5.15;71.23;100200.23;107222;1256;60091;-39
2023/12/05 01:47:17;;;;;;;20.40;14.20;;;;;;;-5.15;71.22;100201.45;107232;1257;72035;-39
2023/12/05 01:49:44;;;;;;;19.40;12.50;;;;;;;-5.16;71.19;100201.91;107130;1262;67587;-39
2023/12/05 01:52:12;;;;;;;19.60;13.00;;;;;;;-5.16;71.21;100198.66;106464;1258;1002881;-39
2023/12/05 01:54:40;;;;;;;22.10;13.10;;;;;;;-5.18;71.15;100198.63;107193;1257;60067;-39
2023/12/05 01:57:07;;;;;;;21.70;12.80;;;;;;;-5.10;71.14;100194.30;107232;1260;60144;-39
2023/12/05 01:59:34;;;;;;;23.40;14.30;;;;;;;-5.00;70.61;100192.48;107098;1257;73179;-39
2023/12/05 02:02:02;;;;;;;20.00;13.30;;;;;;;-4.97;70.83;100194.90;107300;1256;66412;-39
2023/12/05 02:04:31;;;;;;;23.30;13.70;;;;;;;-4.97;70.88;100191.20;106430;1256;1002518;-39
2023/12/05 02:06:59;;;;;;;21.50;13.40;;;;;;;-4.97;70.85;100188.96;107211;1257;60437;-39
2023/12/05 02:09:26;;;;;;;19.60;12.10;;;;;;;-4.99;70.70;100189.01;106477;1257;1002932;-39
2023/12/05 02:11:54;;;;;;;17.80;11.10;;;;;;;-5.00;70.66;100192.59;107232;1256;72387;-39
2023/12/05 02:14:21;;;;;;;22.00;12.40;;;;;;;-5.04;70.63;100197.10;107208;1256;66775;-39
2023/12/05 02:17:07;;;;;;;19.90;12.00;;;;;;;-5.11;70.57;100198.08;107194;1257;72073;-39
2023/12/05 02:20:16;;;;;;;19.50;12.10;;;;;;;-5.16;70.86;100198.30;107102;1256;60426;-39
2023/12/05 02:22:56;;;;;;;20.20;12.10;;;;;;;-5.23;70.96;100200.77;106558;1260;1003054;-39
2023/12/05 02:25:55;;;;;;;22.40;12.90;;;;;;;-5.28;71.13;100200.46;107106;1255;73843;-39
2023/12/05 02:28:24;;;;;;;20.30;12.70;;;;;;;-5.21;71.03;100197.27;107205;1257;66591;-39
2023/12/05 02:30:52;;;;;;;19.00;12.20;;;;;;;-5.18;70.85;100201.14;107227;1257;72730;-39
2023/12/05 02:33:20;;;;;;;21.10;12.90;;;;;;;-5.22;71.09;100199.72;107203;1256;60174;-39
2023/12/05 02:35:47;;;;;;;19.40;12.50;;;;;;;-5.25;71.15;100202.75;107313;1257;60385;-39
2023/12/05 02:38:16;;;;;;;21.30;12.70;;;;;;;-5.29;71.03;100199.02;107075;1257;73904;-39
2023/12/05 02:41:19;;;;;;;20.30;13.50;;;;;;;-5.33;70.90;100195.92;107193;1256;68057;-39
2023/12/05 02:43:56;;;;;;;22.30;13.70;;;;;;;-5.39;70.85;100198.77;106267;1258;1003355;-39
2023/12/05 02:46:24;;;;;;;22.00;13.60;;;;;;;-5.42;71.25;100198.39;107339;1257;60394;-37
2023/12/05 02:48:51;;;;;;;23.00;14.00;;;;;;;-5.44;71.09;100192.10;107267;1254;60374;-38
2023/12/05 02:51:19;;;;;;;22.30;14.70;;;;;;;-5.42;71.25;100195.80;106434;1257;1005169;-39
2023/12/05 02:53:48;;;;;;;23.00;13.40;;;;;;;-5.44;71.18;100201.31;107329;1256;67557;-39
2023/12/05 02:56:17;;;;;;;24.00;14.20;;;;;;;-5.47;71.22;100201.78;107284;1257;71337;-39
2023/12/05 02:58:44;;;;;;;19.30;11.00;;;;;;;-5.46;71.06;100203.02;107169;1257;60360;-39
2023/12/05 03:01:12;;;;;;;20.30;13.10;;;;;;;-5.39;70.84;100200.23;107217;1255;60555;-39
2023/12/05 03:03:39;;;;;;;24.80;14.30;;;;;;;-5.37;70.87;100198.10;107221;1257;72971;-39
2023/12/05 03:06:08;;;;;;;20.50;13.10;;;;;;;-5.35;70.95;100201.21;107220;1258;66280;-39
2023/12/05 03:08:35;;;;;;;23.00;13.60;;;;;;;-5.36;70.75;100201.98;107272;1256;72761;-39
2023/12/05 03:11:03;;;;;;;23.20;13.80;;;;;;;-5.39;70.64;100206.21;107302;1257;60533;-39
2023/12/05 03:13:40;;;;;;;20.20;12.70;;;;;;;-5.45;70.47;100203.04;107203;1257;60456;-39
2023/12/05 03:16:08;;;;;;;22.70;13.40;;;;;;;-5.53;70.15;100203.61;107222;1256;72918;-39
2023/12/05 03:18:35;;;;;;;20.80;12.60;;;;;;;-5.58;70.03;100215.54;107213;1256;66615;-39
2023/12/05 03:21:04;;;;;;;21.80;13.00;;;;;;;-5.62;70.22;100217.57;107223;1257;72670;-39
2023/12/05 03:23:32;;;;;;;22.00;13.20;;;;;;;-5.68;70.07;100218.40;106540;1260;1003334;-39
2023/12/05 03:25:59;;;;;;;22.20;12.50;;;;;;;-5.78;69.91;100217.09;106554;1255;1003738;-39
2023/12/05 03:28:27;;;;;;;22.00;12.20;;;;;;;-5.86;69.94;100221.73;107181;1257;74201;-39
2023/12/05 03:30:54;;;;;;;20.90;13.50;;;;;;;-5.95;70.10;100226.98;107231;1256;66280;-39
2023/12/05 03:33:23;;;;;;;22.20;13.20;;;;;;;-5.94;70.20;100222.31;106514;1256;1003568;-39
2023/12/05 03:35:50;;;;;;;19.30;12.40;;;;;;;-5.87;69.88;100221.46;107275;1257;60078;-39
2023/12/05 03:38:18;;;;;;;20.20;12.50;;;;;;;-5.87;70.01;100216.92;107192;1255;60324;-39
2023/12/05 03:40:45;;;;;;;21.40;12.50;;;;;;;-5.91;70.12;100213.09;106455;1257;1003202;-39
2023/12/05 03:43:13;;;;;;;21.00;12.00;;;;;;;-5.92;70.07;100213.64;107244;1257;67602;-39
2023/12/05 03:45:40;;;;;;;19.70;13.00;;;;;;;-5.95;70.06;100210.60;107259;1257;71678;-38
2023/12/05 03:48:08;;;;;;;20.60;12.80;;;;;;;-5.99;70.16;100204.45;107210;1257;60543;-39
2023/12/05 03:50:35;;;;;;;22.30;13.10;;;;;;;-6.00;70.33;100199.20;107220;1255;60476;-39
2023/12/05 03:53:03;;;;;;;21.50;12.90;;;;;;;-6.00;70.32;100194.04;107203;1258;74326;-39
2023/12/05 03:55:34;;;;;;;21.20;12.10;;;;;;;-5.95;70.41;100196.52;107203;1256;65612;-39
2023/12/05 03:58:02;;;;;;;20.70;12.50;;;;;;;-5.92;70.15;100196.70;107259;1261;71476;-39
2023/12/05 04:00:29;;;;;;;17.50;11.10;;;;;;;-5.97;69.70;100199.55;107127;1257;60350;-39
2023/12/05 04:02:57;;;;;;;20.60;12.70;;;;;;;-6.03;69.60;100192.53;106405;1257;1003763;-39
2023/12/05 04:05:24;;;;;;;20.50;12.90;;;;;;;-6.03;69.86;100202.30;107164;1257;73844;-39
2023/12/05 04:07:52;;;;;;;20.80;12.80;;;;;;;-6.05;69.96;100199.56;107173;1257;67560;-39
2023/12/05 04:10:20;;;;;;;20.30;12.00;;;;;;;-6.02;69.76;100193.84;107157;1257;71760;-39
2023/12/05 04:12:50;;;;;;;17.30;11.20;;;;;;;-5.93;69.52;100193.71;107189;1257;60428;-39
2023/12/05 04:15:17;;;;;;;18.40;11.40;;;;;;;-5.86;69.67;100194.39;106422;1257;1002981;-39
2023/12/05 04:17:45;;;;;;;20.30;12.60;;;;;;;-5.79;69.84;100195.77;106392;1257;1003764;-39
2023/12/05 04:20:13;;;;;;;19.40;11.80;;;;;;;-5.72;69.79;100191.66;107173;1257;67598;-39
2023/12/05 04:22:41;;;;;;;18.70;12.30;;;;;;;-5.64;69.62;100186.36;107191;1262;71542;-39
2023/12/05 04:25:10;;;;;;;21.90;12.40;;;;;;;-5.60;69.21;100188.70;107159;1261;60737;-39
2023/12/05 04:27:38;;;;;;;14.80;8.50;;;;;;;-5.57;69.02;100188.63;107172;1256;60361;-39
2023/12/05 04:30:06;;;;;;;19.60;12.50;;;;;;;-5.55;68.78;100184.22;106406;1257;1003105;-39
2023/12/05 04:32:34;;;;;;;19.80;12.40;;;;;;;-5.58;68.38;100179.83;107212;1257;66490;-39
2023/12/05 04:35:02;;;;;;;20.70;13.40;;;;;;;-5.64;68.21;100183.95;107148;1257;71502;-38
2023/12/05 04:37:29;;;;;;;20.10;12.80;;;;;;;-5.64;68.31;100190.54;107171;1257;60262;-39
2023/12/05 04:39:57;;;;;;;21.50;12.70;;;;;;;-5.68;68.16;100189.30;107156;1257;60328;-39
2023/12/05 04:42:24;;;;;;;22.30;14.50;;;;;;;-5.77;68.23;100187.33;106418;1257;1003118;-39
2023/12/05 04:44:52;;;;;;;21.40;13.80;;;;;;;-5.86;68.27;100198.65;107171;1257;67893;-39
2023/12/05 04:47:20;;;;;;;21.20;13.50;;;;;;;-5.93;68.64;100204.31;106378;1259;1002874;-39
2023/12/05 04:49:48;;;;;;;24.60;14.80;;;;;;;-5.98;68.86;100200.46;107219;1257;60319;-39
2023/12/05 04:52:15;;;;;;;24.80;14.90;;;;;;;-6.02;68.81;100204.17;107302;1254;60418;-39
2023/12/05 04:54:43;;;;;;;26.30;15.10;;;;;;;-6.09;69.03;100205.97;106216;1254;1003663;-39
2023/12/05 04:57:11;;;;;;;23.00;14.00;;;;;;;-6.05;69.14;100204.02;107416;1254;67589;-39
2023/12/05 04:59:38;;;;;;;21.90;14.00;;;;;;;-5.97;68.97;100204.51;107424;1259;72661;-39
2023/12/05 05:02:06;;;;;;;20.10;13.80;;;;;;;-5.95;69.16;100203.38;107422;1254;60286;-39
2023/12/05 05:04:33;;;;;;;24.70;14.70;;;;;;;-5.95;68.97;100208.65;107413;1254;60379;-39
2023/12/05 05:07:03;;;;;;;23.20;14.70;;;;;;;-5.95;69.06;100207.65;107438;1253;73886;-39
2023/12/05 05:09:31;;;;;;;24.20;15.30;;;;;;;-5.95;69.16;100209.23;107442;1254;67642;-39
2023/12/05 05:11:59;;;;;;;24.60;14.50;;;;;;;-5.95;69.07;100210.20;107459;1254;72729;-39
2023/12/05 05:14:26;;;;;;;25.60;15.30;;;;;;;-5.95;69.55;100210.89;107402;1254;59556;-39
2023/12/05 05:16:54;;;;;;;24.20;14.80;;;;;;;-5.93;69.24;100211.91;106674;1254;1015933;-38
2023/12/05 05:19:21;;;;;;;25.10;14.30;;;;;;;-5.90;69.41;100213.53;106681;1254;1003279;-39
2023/12/05 05:21:49;;;;;;;27.20;15.30;;;;;;;-5.88;69.34;100214.38;106787;1254;1003450;-39
2023/12/05 05:24:17;;;;;;;24.00;14.90;;;;;;;-5.88;69.12;100215.73;107516;1254;71522;-39
2023/12/05 05:26:44;;;;;;;30.10;17.50;;;;;;;-5.95;69.17;100219.02;107449;1254;60524;-39
2023/12/05 05:29:12;;;;;;;28.30;16.40;;;;;;;-6.01;68.90;100224.41;107425;1254;60319;-39
2023/12/05 05:31:40;;;;;;;26.80;15.70;;;;;;;-6.11;69.24;100231.73;107454;1254;71860;-39
2023/12/05 05:34:07;;;;;;;25.30;16.30;;;;;;;-6.17;69.55;100233.30;107430;1254;66616;-39
2023/12/05 05:36:35;;;;;;;26.10;15.20;;;;;;;-6.19;69.44;100217.73;107403;1254;72717;-39
2023/12/05 05:39:03;;;;;;;25.50;16.50;;;;;;;-5.99;69.18;100228.70;107437;1254;60553;-39
2023/12/05 05:41:30;;;;;;;23.40;15.70;;;;;;;-5.91;69.45;100226.23;107488;1254;59688;-39
2023/12/05 05:43:58;;;;;;;26.30;16.10;;;;;;;-5.82;69.64;100238.82;107464;1254;73805;-39
2023/12/05 05:46:25;;;;;;;27.30;15.90;;;;;;;-5.73;69.46;100249.41;106685;1254;1003196;-39
2023/12/05 05:48:53;;;;;;;25.00;16.10;;;;;;;-5.66;69.22;100256.85;107404;1260;72721;-39
2023/12/05 05:51:20;;;;;;;27.40;17.40;;;;;;;-5.65;68.63;100259.71;107453;1258;60527;-39
2023/12/05 05:53:48;;;;;;;27.00;17.30;;;;;;;-5.66;68.37;100266.09;107454;1254;60472;-39
2023/12/05 05:56:15;;;;;;;32.40;18.30;;;;;;;-5.72;68.16;100263.81;107428;1254;72584;-39
2023/12/05 05:58:43;;;;;;;26.00;17.50;;;;;;;-5.75;68.47;100259.27;107429;1253;67353;-39
2023/12/05 06:01:11;;;;;;;32.10;18.90;;;;;;;-5.74;68.41;100259.64;106682;1259;1002963;-39
2023/12/05 06:03:40;;;;;;;29.80;19.20;;;;;;;-5.77;68.38;100260.48;106838;1255;1003318;-39
2023/12/05 06:06:08;;;;;;;29.20;19.20;;;;;;;-5.77;68.39;100266.44;107453;1254;60458;-39
2023/12/05 06:08:36;;;;;;;32.00;19.20;;;;;;;-5.74;68.76;100268.77;107585;1254;73907;-39
2023/12/05 06:11:04;;;;;;;32.40;20.20;;;;;;;-5.70;68.57;100278.94;107472;1257;67905;-39
2023/12/05 06:13:31;;;;;;;131.70;60.90;;;;;;;-5.67;68.48;100283.17;107475;1254;71358;-39
2023/12/05 06:15:59;;;;;;;103.60;55.40;;;;;;;-5.67;68.40;100283.09;107434;1254;61002;-39
2023/12/05 06:18:26;;;;;;;68.90;39.70;;;;;;;-5.64;68.42;100287.58;107451;1254;60371;-39
2023/12/05 06:20:56;;;;;;;45.60;24.20;;;;;;;-5.62;68.60;100287.20;107434;1254;73847;-39
2023/12/05 06:23:25;;;;;;;42.60;22.70;;;;;;;-5.60;68.47;100288.55;107450;1254;67572;-39
2023/12/05 06:25:52;;;;;;;42.40;23.40;;;;;;;-5.51;68.31;100291.45;107417;1254;71146;-39
2023/12/05 06:28:20;;;;;;;36.50;21.60;;;;;;;-5.37;68.31;100283.16;107539;1254;60520;-39
2023/12/05 06:30:47;;;;;;;37.90;21.10;;;;;;;-5.28;68.20;100280.39;107457;1253;60494;-39
2023/12/05 06:33:15;;;;;;;39.90;22.20;;;;;;;-5.27;68.51;100269.23;107433;1252;74011;-39
2023/12/05 06:35:43;;;;;;;38.00;21.90;;;;;;;-5.08;68.34;100283.20;107490;1254;67570;-39
2023/12/05 06:38:10;;;;;;;36.60;21.60;;;;;;;-5.01;68.38;100277.64;107456;1253;71663;-39
2023/12/05 06:40:38;;;;;;;36.00;21.30;;;;;;;-4.95;68.01;100270.30;107461;1260;60072;-39
2023/12/05 06:43:07;;;;;;;37.40;21.50;;;;;;;-4.92;68.00;100270.58;107484;1254;60423;-39
2023/12/05 06:45:34;;;;;;;37.20;21.40;;;;;;;-4.89;67.85;100276.40;107516;1254;73897;-39
2023/12/05 06:48:02;;;;;;;34.40;20.30;;;;;;;-4.84;67.82;100279.81;107447;1254;67749;-39
2023/12/05 06:50:32;;;;;;;34.30;20.70;;;;;;;-4.78;67.36;100283.48;107572;1254;72671;-39
2023/12/05 06:52:59;;;;;;;31.10;18.60;;;;;;;-4.74;67.32;100288.67;107561;1254;60380;-39
2023/12/05 06:55:27;;;;;;;34.30;20.60;;;;;;;-4.74;67.12;100285.50;106744;1254;1003418;-39
2023/12/05 06:57:55;;;;;;;33.30;19.60;;;;;;;-4.70;67.10;100288.55;106712;1254;1003769;-39
2023/12/05 07:00:24;;;;;;;34.10;19.90;;;;;;;-4.69;66.81;100293.89;107535;1254;67533;-38
2023/12/05 07:02:51;;;;;;;30.60;18.80;;;;;;;-4.68;66.85;100299.04;107419;1254;72638;-38
2023/12/05 07:05:19;;;;;;;38.00;20.40;;;;;;;-4.67;66.82;100302.52;107448;1254;60335;-39
2023/12/05 07:07:47;;;;;;;30.10;18.60;;;;;;;-4.67;66.62;100301.83;107469;1255;60442;-39
2023/12/05 07:10:14;;;;;;;29.20;18.00;;;;;;;-4.66;66.85;100297.98;107404;1254;74303;-38
2023/12/05 07:12:43;;;;;;;32.80;19.20;;;;;;;-4.62;66.89;100295.05;107442;1254;66809;-38
2023/12/05 07:15:10;;;;;;;30.90;18.80;;;;;;;-4.59;66.94;100293.88;107499;1259;73075;-38
2023/12/05 07:17:38;;;;;;;33.80;20.00;;;;;;;-4.56;66.94;100292.34;106669;1254;1016472;-38
2023/12/05 07:20:06;;;;;;;33.20;19.80;;;;;;;-4.53;67.05;100284.98;107513;1254;60353;-38
2023/12/05 07:22:35;;;;;;;31.70;19.10;;;;;;;-4.38;66.81;100287.67;107518;1258;73122;-39
2023/12/05 07:25:03;;;;;;;30.10;18.70;;;;;;;-4.24;66.89;100282.63;107438;1254;67434;-39
2023/12/05 07:27:31;;;;;;;30.90;19.30;;;;;;;-4.16;66.50;100278.42;107443;1254;71300;-39
2023/12/05 07:29:59;;;;;;;33.50;20.30;;;;;;;-4.19;66.23;100263.27;107432;1254;60437;-39
2023/12/05 07:32:26;;;;;;;31.70;20.70;;;;;;;-4.09;66.26;100273.98;107437;1254;60462;-39
2023/12/05 07:34:54;;;;;;;35.10;20.40;;;;;;;-4.07;66.11;100271.58;107465;1254;72973;-39
2023/12/05 07:37:22;;;;;;;38.40;21.40;;;;;;;-4.08;66.00;100268.17;107424;1259;66260;-39
2023/12/05 07:39:50;;;;;;;34.30;19.60;;;;;;;-4.08;66.13;100269.45;107429;1254;72785;-39
2023/12/05 07:42:18;;;;;;;35.00;20.60;;;;;;;-4.05;66.27;100266.25;107440;1258;61199;-39
2023/12/05 07:44:45;;;;;;;34.20;20.20;;;;;;;-3.99;66.40;100260.92;107449;1254;60444;-39
2023/12/05 07:47:14;;;;;;;35.60;21.60;;;;;;;-3.93;66.54;100268.50;106669;1254;1003347;-39
2023/12/05 07:49:45;;;;;;;38.10;20.80;;;;;;;-3.87;66.62;100272.19;107281;1254;67587;-39
2023/12/05 07:52:12;;;;;;;31.10;19.60;;;;;;;-3.81;66.60;100274.27;107425;1254;72683;-39
2023/12/05 07:54:40;;;;;;;32.70;19.70;;;;;;;-3.69;66.47;100276.44;107394;1254;60533;-39
2023/12/05 07:57:08;;;;;;;32.20;20.60;;;;;;;-3.58;66.82;100275.68;107418;1258;60339;-39
2023/12/05 07:59:35;;;;;;;37.00;22.00;;;;;;;-3.46;67.07;100277.12;107250;1257;73891;-39
2023/12/05 08:02:03;;;;;;;36.50;23.00;;;;;;;-3.29;67.16;100280.95;107263;1259;66297;-39
2023/12/05 08:04:33;;;;;;;41.30;23.70;;;;;;;-3.13;67.18;100279.52;107257;1259;73006;-39
2023/12/05 08:07:01;;;;;;;34.60;22.40;;;;;;;-2.96;66.99;100270.36;107239;1257;60354;-39
2023/12/05 08:09:29;;;;;;;35.40;23.20;;;;;;;-2.81;66.95;100272.17;106597;1257;1003152;-39
2023/12/05 08:11:57;;;;;;;37.90;22.60;;;;;;;-2.68;66.86;100274.23;106510;1259;1003835;-39
2023/12/05 08:14:25;;;;;;;36.70;22.50;;;;;;;-2.53;66.65;100276.13;107220;1257;68587;-40
2023/12/05 08:16:52;;;;;;;38.30;22.70;;;;;;;-2.36;66.52;100274.85;107176;1257;71495;-39
2023/12/05 08:19:20;;;;;;;39.40;23.00;;;;;;;-2.21;66.26;100276.89;107265;1259;60347;-39
2023/12/05 08:21:47;;;;;;;32.50;22.20;;;;;;;-2.09;66.10;100278.69;107233;1258;60584;-39
2023/12/05 08:24:15;;;;;;;33.80;21.50;;;;;;;-1.93;65.89;100277.42;107254;1255;74642;-39
2023/12/05 08:26:43;;;;;;;33.10;22.40;;;;;;;-1.70;65.89;100273.87;107284;1259;66737;-39
2023/12/05 08:29:11;;;;;;;32.30;20.70;;;;;;;-1.42;65.43;100270.48;107257;1257;71742;-38
2023/12/05 08:31:38;;;;;;;35.40;20.70;;;;;;;-1.24;64.91;100273.80;107277;1257;60415;-38
2023/12/05 08:34:06;;;;;;;34.40;21.80;;;;;;;-1.10;64.34;100274.08;107274;1257;59244;-38
2023/12/05 08:36:34;;;;;;;30.20;20.20;;;;;;;-0.96;64.30;100271.84;107276;1259;73840;-38
2023/12/05 08:39:03;;;;;;;35.30;21.50;;;;;;;-0.79;63.76;100262.09;107285;1257;67582;-38
2023/12/05 08:41:31;;;;;;;37.90;22.10;;;;;;;-0.61;63.61;100259.69;107253;1259;71301;-38
2023/12/05 08:43:58;;;;;;;36.30;20.20;;;;;;;-0.46;62.91;100257.52;107278;1255;60444;-38
2023/12/05 08:46:26;;;;;;;31.20;21.20;;;;;;;-0.40;62.50;100249.59;107269;1257;60473;-38
2023/12/05 08:48:54;;;;;;;29.90;20.80;;;;;;;-0.34;62.22;100244.75;107240;1257;73828;-38
2023/12/05 08:51:22;;;;;;;38.70;22.10;;;;;;;-0.28;61.81;100239.05;107258;1259;67846;-38
2023/12/05 08:53:50;;;;;;;39.00;23.20;;;;;;;-0.26;61.75;100240.60;107242;1257;71380;-38
2023/12/05 08:56:17;;;;;;;43.50;26.40;;;;;;;-0.24;61.69;100237.77;107278;1255;60357;-38
2023/12/05 08:58:44;;;;;;;37.80;24.70;;;;;;;-0.28;61.31;100236.05;107254;1257;60396;-38
2023/12/05 09:01:12;;;;;;;47.50;28.90;;;;;;;-0.32;61.25;100233.66;107253;1255;73818;-39
2023/12/05 09:03:40;;;;;;;33.80;21.20;;;;;;;-0.39;61.02;100230.63;107273;1257;67661;-39
2023/12/05 09:06:08;;;;;;;31.00;20.20;;;;;;;-0.43;61.55;100229.08;107303;1257;72522;-39
2023/12/05 09:08:36;;;;;;;44.00;26.20;;;;;;;-0.34;61.65;100230.20;107349;1257;60440;-39
2023/12/05 09:11:04;;;;;;;33.20;21.50;;;;;;;-0.31;61.37;100230.31;107267;1257;60367;-39
2023/12/05 09:13:32;;;;;;;36.20;21.60;;;;;;;-0.30;61.14;100228.50;107221;1255;73852;-39
2023/12/05 09:16:00;;;;;;;32.90;21.40;;;;;;;-0.25;61.15;100226.74;106479;1257;1003025;-39
2023/12/05 09:18:27;;;;;;;42.90;25.70;;;;;;;-0.25;60.89;100223.08;107217;1258;72667;-39
2023/12/05 09:20:57;;;;;;;42.30;27.00;;;;;;;-0.28;60.77;100218.65;107281;1257;60313;-40
2023/12/05 09:23:27;;;;;;;44.10;25.70;;;;;;;-0.34;60.79;100217.79;107263;1257;62172;-39
2023/12/05 09:25:56;;;;;;;48.70;28.60;;;;;;;-0.38;61.06;100220.92;107248;1259;73830;-39
2023/12/05 09:28:23;;;;;;;40.70;25.60;;;;;;;-0.38;61.14;100216.49;107235;1257;68041;-39
2023/12/05 09:30:51;;;;;;;40.00;24.60;;;;;;;-0.37;61.33;100216.40;107232;1259;72625;-39
2023/12/05 09:33:18;;;;;;;38.20;24.00;;;;;;;-0.33;61.34;100211.61;107257;1258;60536;-40
2023/12/05 09:35:46;;;;;;;36.80;23.70;;;;;;;-0.32;60.78;100210.80;107227;1260;60387;-39
2023/12/05 09:38:13;;;;;;;36.40;23.60;;;;;;;-0.34;61.04;100209.21;107285;1259;74076;-39
2023/12/05 09:40:42;;;;;;;44.50;28.60;;;;;;;-0.36;61.26;100206.65;107245;1259;67551;-38
2023/12/05 09:43:09;;;;;;;38.00;25.10;;;;;;;-0.35;61.34;100206.29;107157;1263;72682;-38
2023/12/05 09:45:43;;;;;;;38.40;25.30;;;;;;;-0.36;61.36;100203.35;107180;1257;60457;-38
2023/12/05 09:48:11;;;;;;;41.60;26.10;;;;;;;-0.33;61.02;100203.19;107378;1256;59662;-38
2023/12/05 09:50:39;;;;;;;34.90;24.00;;;;;;;-0.30;61.01;100200.52;107279;1259;73989;-38
2023/12/05 09:53:09;;;;;;;28.50;18.20;;;;;;;-0.30;61.09;100203.84;107273;1257;67609;-39
2023/12/05 09:55:38;;;;;;;41.30;25.90;;;;;;;-0.31;61.08;100203.40;107216;1258;71840;-39
2023/12/05 09:58:06;;;;;;;40.20;25.70;;;;;;;-0.32;61.01;100202.06;107249;1257;60983;-39
2023/12/05 10:00:34;;;;;;;43.40;26.20;;;;;;;-0.33;61.05;100197.05;107184;1255;60450;-39
2023/12/05 10:03:01;;;;;;;43.60;27.00;;;;;;;-0.34;61.29;100197.82;106461;1257;1003040;-39
2023/12/05 10:05:29;;;;;;;37.90;25.10;;;;;;;-0.38;61.37;100197.00;106269;1260;1002913;-39
2023/12/05 10:07:56;;;;;;;33.40;21.90;;;;;;;-0.42;61.33;100200.36;107227;1260;72652;-39
2023/12/05 10:10:24;;;;;;;38.90;22.60;;;;;;;-0.42;61.18;100199.23;107045;1260;187703;-40
2023/12/05 10:15:47;;;;;;;38.80;23.90;;;;;;;-0.37;61.24;100204.79;104124;1292;601114;-38
2023/12/05 10:18:15;;;;;;;34.60;22.70;;;;;;;-0.40;61.10;100207.94;106563;1265;59294;-38
2023/12/05 10:20:44;;;;;;;36.80;24.40;;;;;;;-0.40;61.38;100207.56;106493;1267;60016;-38
2023/12/05 10:23:12;;;;;;;36.70;22.40;;;;;;;-0.40;61.73;100209.21;106608;1267;71286;-38
2023/12/05 10:25:44;;;;;;;34.00;21.60;;;;;;;-0.35;61.42;100210.86;106616;1265;67624;-38
2023/12/05 10:28:12;;;;;;;37.10;22.70;;;;;;;-0.38;61.05;100197.32;106643;1267;71350;-38
2023/12/05 10:30:40;;;;;;;35.00;22.30;;;;;;;-0.27;60.95;100204.79;106498;1264;59695;-38
2023/12/05 10:33:11;;;;;;;38.80;24.90;;;;;;;-0.26;60.75;100205.48;106606;1264;60035;-38
2023/12/05 10:35:41;;;;;;;35.60;22.80;;;;;;;-0.26;61.03;100201.21;106614;1264;72114;-39
2023/12/05 10:38:11;;;;;;;39.20;21.70;;;;;;;-0.26;61.37;100195.95;106679;1269;66905;-38
2023/12/05 10:40:56;;;;;;;36.70;24.20;;;;;;;-0.23;61.08;100191.20;106806;1265;72807;-38
2023/12/05 10:43:24;;;;;;;41.60;25.40;;;;;;;-0.22;60.88;100187.73;105924;1264;1003023;-38
2023/12/05 10:45:52;;;;;;;36.10;23.40;;;;;;;-0.28;61.06;100188.80;106731;1268;59537;-38
2023/12/05 10:48:20;;;;;;;39.50;25.60;;;;;;;-0.30;61.33;100182.09;106667;1269;73057;-38
2023/12/05 10:50:49;;;;;;;43.50;27.00;;;;;;;-0.33;61.21;100178.10;106779;1264;69041;-38
2023/12/05 10:53:16;;;;;;;43.30;26.40;;;;;;;-0.35;61.35;100183.85;106700;1265;72784;-38
2023/12/05 10:55:44;;;;;;;40.30;25.20;;;;;;;-0.37;61.62;100175.42;106540;1263;59667;-38
2023/12/05 10:58:11;;;;;;;44.80;26.00;;;;;;;-0.35;61.70;100168.61;106665;1263;60227;-38
2023/12/05 11:00:39;;;;;;;38.90;26.00;;;;;;;-0.33;61.75;100160.98;106705;1263;74337;-39
2023/12/05 11:03:07;;;;;;;41.10;25.00;;;;;;;-0.30;61.99;100153.36;106730;1263;68897;-38
2023/12/05 11:05:35;;;;;;;57.40;32.50;;;;;;;-0.27;61.96;100149.68;106676;1267;72689;-39
2023/12/05 11:08:04;;;;;;;51.50;28.70;;;;;;;-0.31;61.97;100154.38;106636;1263;61173;-39